createdAt,value
2022-12-18T00:01:37.310Z,22.52
2022-12-18T00:04:06.041Z,26.90
2022-12-18T00:06:34.718Z,21.33
2022-12-18T00:09:03.235Z,22.60
2022-12-18T00:11:31.602Z,20.05
2022-12-18T00:14:01.252Z,26.05
2022-12-18T00:16:29.291Z,20.27
2022-12-18T00:18:58.924Z,22.58
2022-12-18T00:21:26.128Z,25.50
2022-12-18T00:23:55.365Z,22.50
2022-12-18T00:26:27.782Z,23.85
2022-12-18T00:28:56.566Z,26.20
2022-12-18T00:31:25.555Z,22.27
2022-12-18T00:33:55.531Z,23.38
2022-12-18T00:36:27.540Z,21.23
2022-12-18T00:38:58.363Z,21.38
2022-12-18T00:41:44.750Z,16.25
2022-12-18T00:44:13.959Z,26.80
2022-12-18T00:46:41.124Z,22.20
2022-12-18T00:49:14.310Z,22.98
2022-12-18T00:51:41.080Z,26.48
2022-12-18T00:54:07.868Z,23.80
2022-12-18T00:56:48.364Z,24.52
2022-12-18T00:59:21.050Z,23.50
2022-12-18T01:01:48.226Z,21.70
2022-12-18T01:04:17.390Z,26.27
2022-12-18T01:06:44.773Z,25.35
2022-12-18T01:09:11.465Z,20.92
2022-12-18T01:11:38.195Z,25.02
2022-12-18T01:14:07.996Z,22.77
2022-12-18T01:16:39.720Z,30.65
2022-12-18T01:19:06.731Z,24.38
2022-12-18T01:21:33.578Z,18.83
2022-12-18T01:24:00.408Z,23.38
2022-12-18T01:26:28.347Z,23.40
2022-12-18T01:28:59.107Z,24.02
2022-12-18T01:31:33.797Z,22.63
2022-12-18T01:34:05.318Z,25.17
2022-12-18T01:36:34.950Z,24.27
2022-12-18T01:39:05.939Z,26.42
2022-12-18T01:41:54.911Z,21.15
2022-12-18T01:44:52.317Z,28.13
2022-12-18T01:47:21.340Z,21.40
2022-12-18T01:49:48.067Z,24.67
2022-12-18T01:52:15.274Z,23.17
2022-12-18T01:54:47.275Z,23.77
2022-12-18T01:57:16.777Z,26.25
2022-12-18T01:59:46.174Z,20.75
2022-12-18T02:02:13.241Z,24.58
2022-12-18T02:04:47.811Z,25.45
2022-12-18T02:07:40.421Z,24.25
2022-12-18T02:10:22.182Z,22.02
2022-12-18T02:13:02.621Z,23.02
2022-12-18T02:15:51.994Z,22.77
2022-12-18T02:18:34.472Z,25.38
2022-12-18T02:21:33.113Z,11.68
2022-12-18T02:24:23.961Z,21.73
2022-12-18T02:27:06.242Z,25.05
2022-12-18T02:29:57.665Z,24.17
2022-12-18T02:32:38.819Z,26.42
2022-12-18T02:35:14.205Z,25.30
2022-12-18T02:37:46.064Z,26.30
2022-12-18T02:40:15.082Z,27.42
2022-12-18T02:42:41.857Z,22.65
2022-12-18T02:45:08.955Z,22.77
2022-12-18T02:47:44.202Z,26.30
2022-12-18T02:50:32.040Z,22.10
2022-12-18T02:53:34.797Z,22.63
2022-12-18T02:56:21.041Z,27.20
2022-12-18T02:59:16.920Z,18.67
2022-12-18T03:01:53.309Z,22.55
2022-12-18T03:04:32.689Z,21.00
2022-12-18T03:07:03.866Z,23.25
2022-12-18T03:09:39.816Z,23.42
2022-12-18T03:12:25.929Z,24.00
2022-12-18T03:17:34.838Z,22.88
2022-12-18T03:20:08.489Z,23.50
2022-12-18T03:22:37.889Z,23.70
2022-12-18T03:25:08.720Z,26.27
2022-12-18T03:27:39.972Z,22.33
2022-12-18T03:30:13.234Z,22.55
2022-12-18T03:32:51.522Z,22.00
2022-12-18T03:35:23.786Z,21.80
2022-12-18T03:37:55.331Z,26.33
2022-12-18T03:40:32.456Z,23.92
2022-12-18T03:43:14.906Z,16.55
2022-12-18T03:45:53.892Z,21.40
2022-12-18T03:48:36.443Z,20.20
2022-12-18T03:51:31.599Z,22.88
2022-12-18T03:54:09.367Z,23.08
2022-12-18T03:56:45.112Z,25.77
2022-12-18T03:59:14.882Z,26.63
2022-12-18T04:01:47.399Z,22.92
2022-12-18T04:04:16.246Z,24.27
2022-12-18T04:06:51.215Z,23.83
2022-12-18T04:09:21.715Z,21.38
2022-12-18T04:11:52.538Z,19.15
2022-12-18T04:14:21.416Z,27.27
2022-12-18T04:16:50.745Z,22.75
2022-12-18T04:19:17.480Z,26.42
2022-12-18T04:21:44.149Z,28.85
2022-12-18T04:24:10.826Z,30.55
2022-12-18T04:26:37.580Z,28.15
2022-12-18T04:29:04.378Z,24.27
2022-12-18T04:31:31.139Z,24.30
2022-12-18T04:33:57.856Z,24.95
2022-12-18T04:36:24.552Z,28.40
2022-12-18T04:38:53.768Z,23.70
2022-12-18T04:41:20.563Z,28.90
2022-12-18T04:43:47.440Z,25.75
2022-12-18T04:46:14.511Z,15.25
2022-12-18T04:48:41.389Z,21.88
2022-12-18T04:51:08.488Z,23.23
2022-12-18T04:53:35.199Z,22.10
2022-12-18T04:56:12.640Z,18.63
2022-12-18T04:58:41.143Z,24.52
2022-12-18T05:01:10.798Z,25.88
2022-12-18T05:03:40.987Z,28.30
2022-12-18T05:06:08.528Z,24.15
2022-12-18T05:08:35.495Z,26.50
2022-12-18T05:11:04.562Z,30.10
2022-12-18T05:13:33.131Z,27.38
2022-12-18T05:16:00.289Z,24.05
2022-12-18T05:18:27.092Z,26.73
2022-12-18T05:20:54.904Z,23.27
2022-12-18T05:23:23.831Z,23.85
2022-12-18T05:26:02.240Z,26.70
2022-12-18T05:28:31.090Z,26.50
2022-12-18T05:31:01.057Z,31.33
2022-12-18T05:33:33.048Z,30.27
2022-12-18T05:36:02.076Z,26.60
2022-12-18T05:38:29.948Z,28.90
2022-12-18T05:40:57.260Z,28.58
2022-12-18T05:43:27.428Z,27.45
2022-12-18T05:45:54.919Z,29.33
2022-12-18T05:48:24.885Z,31.00
2022-12-18T05:50:51.860Z,30.65
2022-12-18T05:53:20.804Z,26.30
2022-12-18T05:55:48.064Z,24.85
2022-12-18T05:58:16.664Z,27.95
2022-12-18T06:00:46.062Z,28.48
2022-12-18T06:03:16.604Z,29.60
2022-12-18T06:05:45.449Z,21.85
2022-12-18T06:08:17.816Z,26.90
2022-12-18T06:10:52.202Z,27.85
2022-12-18T06:13:19.416Z,26.98
2022-12-18T06:15:48.578Z,30.33
2022-12-18T06:18:17.447Z,30.17
2022-12-18T06:20:44.123Z,28.55
2022-12-18T06:23:10.801Z,29.30
2022-12-18T06:25:41.663Z,14.85
2022-12-18T06:28:08.381Z,27.30
2022-12-18T06:30:37.622Z,30.52
2022-12-18T06:33:08.902Z,27.30
2022-12-18T06:35:35.635Z,22.02
2022-12-18T06:38:03.474Z,31.38
2022-12-18T06:40:33.306Z,30.42
2022-12-18T06:43:00.054Z,24.42
2022-12-18T06:45:26.907Z,21.58
2022-12-18T06:47:54.862Z,24.40
2022-12-18T06:50:23.675Z,23.85
2022-12-18T06:52:52.593Z,19.25
2022-12-18T06:55:19.694Z,22.35
2022-12-18T06:57:46.345Z,28.27
2022-12-18T07:00:15.832Z,27.10
2022-12-18T07:02:42.731Z,30.10
2022-12-18T07:05:11.770Z,27.25
2022-12-18T07:07:38.824Z,22.52
2022-12-18T07:10:08.171Z,25.55
2022-12-18T07:12:37.408Z,31.63
2022-12-18T07:15:07.350Z,31.88
2022-12-18T07:17:34.054Z,23.13
2022-12-18T07:20:00.721Z,29.88
2022-12-18T07:22:27.733Z,29.25
2022-12-18T07:24:56.934Z,26.95
2022-12-18T07:27:23.898Z,26.65
2022-12-18T07:29:50.649Z,29.30
2022-12-18T07:32:17.513Z,28.48
2022-12-18T07:34:44.198Z,25.17
2022-12-18T07:37:10.943Z,22.50
2022-12-18T07:39:37.592Z,30.42
2022-12-18T07:42:23.234Z,29.85
2022-12-18T07:44:52.399Z,25.63
2022-12-18T07:47:21.576Z,28.20
2022-12-18T07:49:48.266Z,22.55
2022-12-18T07:52:15.080Z,20.17
2022-12-18T07:54:41.898Z,28.90
2022-12-18T07:57:16.477Z,26.38
2022-12-18T07:59:54.047Z,28.08
2022-12-18T08:02:20.825Z,28.17
2022-12-18T08:04:48.616Z,27.40
2022-12-18T08:07:15.346Z,30.85
2022-12-18T08:09:44.234Z,28.50
2022-12-18T08:12:10.906Z,28.13
2022-12-18T08:14:37.831Z,30.30
2022-12-18T08:17:04.498Z,27.25
2022-12-18T08:19:31.308Z,22.45
2022-12-18T08:22:00.131Z,29.15
2022-12-18T08:24:31.683Z,19.95
2022-12-18T08:27:30.734Z,29.10
2022-12-18T08:29:49.627Z,21.92
2022-12-18T08:32:18.639Z,21.05
2022-12-18T08:34:45.391Z,16.73
2022-12-18T08:37:14.554Z,28.23
2022-12-18T08:39:41.259Z,29.73
2022-12-18T08:42:26.539Z,30.40
2022-12-18T08:44:53.200Z,19.48
2022-12-18T08:47:19.874Z,26.30
2022-12-18T08:49:46.568Z,24.48
2022-12-18T08:52:15.396Z,23.73
2022-12-18T08:54:42.072Z,26.23
2022-12-18T08:57:11.207Z,32.65
2022-12-18T08:59:38.046Z,15.55
2022-12-18T09:02:04.788Z,25.55
2022-12-18T09:04:31.695Z,27.45
2022-12-18T09:07:00.711Z,28.35
2022-12-18T09:09:27.866Z,28.02
2022-12-18T09:11:59.452Z,30.48
2022-12-18T09:14:26.084Z,28.75
2022-12-18T09:16:52.854Z,29.35
2022-12-18T09:19:19.532Z,29.58
2022-12-18T09:21:48.695Z,29.15
2022-12-18T09:24:24.287Z,27.77
2022-12-18T09:26:57.873Z,8.88
2022-12-18T09:29:29.811Z,19.23
2022-12-18T09:31:56.602Z,30.48
2022-12-18T09:34:25.702Z,28.15
2022-12-18T09:36:52.452Z,28.92
2022-12-18T09:39:19.110Z,24.75
2022-12-18T09:41:57.905Z,25.70
2022-12-18T09:44:32.645Z,20.73
2022-12-18T09:47:14.650Z,24.40
2022-12-18T09:49:45.323Z,25.05
2022-12-18T09:52:40.572Z,29.08
2022-12-18T09:55:35.100Z,27.48
2022-12-18T10:00:34.418Z,29.05
2022-12-18T10:03:13.342Z,27.73
2022-12-18T10:06:14.202Z,26.90
2022-12-18T10:08:52.582Z,27.20
2022-12-18T10:11:47.246Z,24.17
2022-12-18T10:14:40.077Z,24.92
2022-12-18T10:17:13.935Z,28.77
2022-12-18T10:20:01.923Z,25.67
2022-12-18T10:22:58.137Z,25.25
2022-12-18T10:25:42.034Z,31.02
2022-12-18T10:28:13.730Z,28.58
2022-12-18T10:30:42.200Z,27.23
2022-12-18T10:33:15.047Z,22.05
2022-12-18T10:35:43.231Z,23.52
2022-12-18T10:38:17.092Z,19.35
2022-12-18T10:40:53.354Z,24.70
2022-12-18T10:43:37.364Z,24.05
2022-12-18T10:46:10.217Z,22.08
2022-12-18T10:48:40.404Z,30.65
2022-12-18T10:51:12.821Z,27.75
2022-12-18T10:53:42.867Z,26.75
2022-12-18T10:56:11.999Z,25.55
2022-12-18T10:58:40.329Z,26.52
2022-12-18T11:01:21.057Z,23.70
2022-12-18T11:04:02.737Z,27.85
2022-12-18T11:06:30.676Z,25.63
2022-12-18T11:09:12.257Z,18.08
2022-12-18T11:11:41.285Z,26.65
2022-12-18T11:14:18.951Z,20.75
2022-12-18T11:17:23.892Z,23.65
2022-12-18T11:19:42.001Z,24.73
2022-12-18T11:22:23.976Z,22.38
2022-12-18T11:25:30.883Z,24.75
2022-12-18T11:27:57.440Z,20.83
2022-12-18T11:30:25.838Z,27.60
2022-12-18T11:33:01.262Z,24.33
2022-12-18T11:35:55.130Z,26.23
2022-12-18T11:38:36.766Z,26.90
2022-12-18T11:41:22.269Z,23.23
2022-12-18T11:43:56.852Z,26.73
2022-12-18T11:46:34.643Z,27.35
2022-12-18T11:49:23.609Z,25.23
2022-12-18T11:51:53.023Z,24.92
2022-12-18T11:54:19.768Z,24.90
2022-12-18T11:57:12.406Z,27.13
2022-12-18T12:00:02.771Z,23.13
2022-12-18T12:02:53.483Z,20.45
2022-12-18T12:05:56.353Z,27.15
2022-12-18T12:08:42.025Z,18.75
2022-12-18T12:11:17.496Z,30.08
2022-12-18T12:14:18.485Z,20.90
2022-12-18T12:16:51.300Z,23.15
2022-12-18T12:19:43.863Z,27.17
2022-12-18T12:22:37.955Z,23.08
2022-12-18T12:25:10.627Z,25.73
2022-12-18T12:27:49.409Z,30.27
2022-12-18T12:30:18.904Z,19.77
2022-12-18T12:33:11.977Z,30.17
2022-12-18T12:35:53.436Z,24.27
2022-12-18T12:38:29.239Z,26.80
2022-12-18T12:41:03.388Z,28.85
2022-12-18T12:43:47.873Z,27.90
2022-12-18T12:46:20.643Z,25.13
2022-12-18T12:48:58.558Z,25.52
2022-12-18T12:51:39.907Z,25.65
2022-12-18T12:54:16.626Z,33.63
2022-12-18T12:57:00.602Z,27.92
2022-12-18T12:59:59.088Z,27.20
2022-12-18T13:02:43.098Z,28.05
2022-12-18T13:05:16.020Z,25.60
2022-12-18T13:07:51.454Z,26.67
2022-12-18T13:10:20.557Z,26.85
2022-12-18T13:13:09.037Z,28.33
2022-12-18T13:15:41.968Z,29.88
2022-12-18T13:18:17.152Z,34.22
2022-12-18T13:20:55.304Z,30.48
2022-12-18T13:23:29.266Z,33.22
2022-12-18T13:26:10.916Z,30.33
2022-12-18T13:28:49.604Z,30.02
2022-12-18T13:31:42.354Z,28.27
2022-12-18T13:34:28.284Z,37.25
2022-12-18T13:37:23.520Z,31.85
2022-12-18T13:39:50.837Z,34.78
2022-12-18T13:42:36.092Z,29.63
2022-12-18T13:45:03.539Z,37.53
2022-12-18T13:47:38.405Z,29.05
2022-12-18T13:50:32.492Z,28.85
2022-12-18T13:53:03.939Z,28.75
2022-12-18T13:55:30.681Z,28.60
2022-12-18T13:58:07.423Z,36.60
2022-12-18T14:00:34.423Z,34.28
2022-12-18T14:03:01.873Z,33.17
2022-12-18T14:05:35.607Z,36.63
2022-12-18T14:08:12.276Z,32.92
2022-12-18T14:10:48.405Z,31.00
2022-12-18T14:13:30.343Z,21.02
2022-12-18T14:16:00.949Z,31.02
2022-12-18T14:18:46.060Z,36.35
2022-12-18T14:21:38.985Z,27.10
2022-12-18T14:24:12.338Z,33.05
2022-12-18T14:26:39.623Z,32.85
2022-12-18T14:29:35.764Z,36.22
2022-12-18T14:32:21.660Z,32.25
2022-12-18T14:34:50.622Z,31.85
2022-12-18T14:37:22.684Z,34.97
2022-12-18T14:40:10.964Z,29.80
2022-12-18T14:42:38.811Z,29.80
2022-12-18T14:45:43.827Z,37.88
2022-12-18T14:48:34.072Z,31.67
2022-12-18T14:51:17.839Z,31.15
2022-12-18T14:53:52.176Z,34.22
2022-12-18T14:56:24.478Z,35.85
2022-12-18T14:58:56.078Z,29.42
2022-12-18T15:01:28.568Z,32.17
2022-12-18T15:03:57.034Z,29.65
2022-12-18T15:06:37.091Z,36.25
2022-12-18T15:09:26.222Z,35.65
2022-12-18T15:12:00.946Z,32.42
2022-12-18T15:14:41.206Z,30.17
2022-12-18T15:17:20.635Z,34.30
2022-12-18T15:19:49.380Z,33.25
2022-12-18T15:22:25.875Z,35.67
2022-12-18T15:24:56.250Z,31.98
2022-12-18T15:27:36.756Z,34.72
2022-12-18T15:30:11.500Z,32.78
2022-12-18T15:32:40.095Z,39.05
2022-12-18T15:35:09.812Z,35.00
2022-12-18T15:37:36.528Z,36.08
2022-12-18T15:40:06.015Z,33.67
2022-12-18T15:42:51.561Z,25.38
2022-12-18T15:45:20.762Z,38.08
2022-12-18T15:47:52.479Z,30.33
2022-12-18T15:50:19.319Z,38.53
2022-12-18T15:52:48.501Z,35.13
2022-12-18T15:55:36.768Z,40.15
2022-12-18T15:58:04.878Z,33.20
2022-12-18T16:00:32.696Z,38.55
2022-12-18T16:02:59.645Z,36.00
2022-12-18T16:05:28.041Z,37.90
2022-12-18T16:07:57.329Z,33.33
2022-12-18T16:10:25.902Z,25.48
2022-12-18T16:12:52.952Z,32.33
2022-12-18T16:15:24.231Z,33.28
2022-12-18T16:17:52.616Z,26.70
2022-12-18T16:20:21.765Z,27.80
2022-12-18T16:22:51.049Z,39.83
2022-12-18T16:25:20.387Z,40.45
2022-12-18T16:27:47.687Z,35.38
2022-12-18T16:30:18.000Z,37.63
2022-12-18T16:32:45.233Z,35.97
2022-12-18T16:35:14.092Z,42.13
2022-12-18T16:37:41.655Z,29.83
2022-12-18T16:40:12.870Z,38.67
2022-12-18T16:42:41.109Z,25.17
2022-12-18T16:45:10.020Z,30.77
2022-12-18T16:47:36.781Z,40.05
2022-12-18T16:50:04.478Z,35.55
2022-12-18T16:52:31.284Z,29.80
2022-12-18T16:54:57.928Z,40.90
2022-12-18T16:57:25.537Z,30.15
2022-12-18T16:59:52.996Z,39.55
2022-12-18T17:02:23.631Z,39.72
2022-12-18T17:04:53.948Z,34.47
2022-12-18T17:07:20.684Z,39.83
2022-12-18T17:09:47.438Z,46.42
2022-12-18T17:12:14.145Z,38.35
2022-12-18T17:14:40.866Z,42.55
2022-12-18T17:17:25.386Z,33.70
2022-12-18T17:19:52.714Z,36.72
2022-12-18T17:22:20.688Z,44.42
2022-12-18T17:24:50.154Z,49.83
2022-12-18T17:27:16.940Z,41.03
2022-12-18T17:29:48.298Z,37.92
2022-12-18T17:32:18.225Z,30.20
2022-12-18T17:34:45.044Z,37.70
2022-12-18T17:37:14.746Z,35.67
2022-12-18T17:39:42.099Z,40.80
2022-12-18T17:42:15.557Z,39.53
2022-12-18T17:44:43.314Z,46.28
2022-12-18T17:47:12.037Z,39.40
2022-12-18T17:49:41.095Z,41.20
2022-12-18T17:52:08.018Z,41.92
2022-12-18T17:54:35.530Z,35.45
2022-12-18T17:57:02.212Z,45.10
2022-12-18T17:59:29.230Z,43.22
2022-12-18T18:01:56.009Z,46.42
2022-12-18T18:04:22.872Z,45.08
2022-12-18T18:06:49.638Z,44.67
2022-12-18T18:09:17.201Z,46.00
2022-12-18T18:12:04.055Z,35.22
2022-12-18T18:14:31.346Z,36.88
2022-12-18T18:17:02.001Z,40.25
2022-12-18T18:19:32.691Z,44.30
2022-12-18T18:22:02.980Z,40.55
2022-12-18T18:24:33.095Z,46.97
2022-12-18T18:27:02.278Z,36.80
2022-12-18T18:29:32.133Z,42.40
2022-12-18T18:31:59.660Z,34.80
2022-12-18T18:34:32.697Z,40.63
2022-12-18T18:37:00.953Z,25.33
2022-12-18T18:39:28.374Z,38.95
2022-12-18T18:41:55.603Z,43.85
2022-12-18T18:44:25.673Z,44.25
2022-12-18T18:46:56.882Z,47.28
2022-12-18T18:49:27.096Z,43.08
2022-12-18T18:51:57.168Z,50.45
2022-12-18T18:54:26.867Z,50.38
2022-12-18T18:57:19.333Z,39.53
2022-12-18T18:59:42.586Z,50.00
2022-12-18T19:02:15.132Z,49.08
2022-12-18T19:04:46.097Z,50.08
2022-12-18T19:07:29.341Z,44.45
2022-12-18T19:09:56.760Z,46.15
2022-12-18T19:12:41.985Z,39.08
2022-12-18T19:15:13.809Z,55.53
2022-12-18T19:17:40.982Z,44.97
2022-12-18T19:20:09.258Z,46.40
2022-12-18T19:22:39.020Z,48.50
2022-12-18T19:25:06.512Z,46.30
2022-12-18T19:27:38.458Z,42.78
2022-12-18T19:30:05.677Z,46.67
2022-12-18T19:32:33.476Z,45.30
2022-12-18T19:35:00.264Z,43.67
2022-12-18T19:37:29.947Z,53.03
2022-12-18T19:39:56.744Z,46.47
2022-12-18T19:42:29.411Z,46.03
2022-12-18T19:45:00.711Z,41.95
2022-12-18T19:47:27.427Z,47.28
2022-12-18T19:49:54.157Z,39.75
2022-12-18T19:52:20.894Z,48.85
2022-12-18T19:54:47.871Z,41.05
2022-12-18T19:57:14.696Z,44.95
2022-12-18T19:59:43.901Z,49.17
2022-12-18T20:02:13.960Z,54.50
2022-12-18T20:04:43.408Z,50.92
2022-12-18T20:07:10.324Z,51.20
2022-12-18T20:09:37.173Z,50.13
2022-12-18T20:12:04.754Z,47.95
2022-12-18T20:14:33.712Z,46.47
2022-12-18T20:17:02.622Z,45.80
2022-12-18T20:19:29.686Z,36.50
2022-12-18T20:21:59.123Z,46.30
2022-12-18T20:24:27.042Z,43.53
2022-12-18T20:26:54.859Z,39.25
2022-12-18T20:29:21.710Z,47.88
2022-12-18T20:31:48.451Z,55.00
2022-12-18T20:34:15.299Z,50.35
2022-12-18T20:36:44.999Z,47.40
2022-12-18T20:39:12.330Z,47.10
2022-12-18T20:41:41.342Z,52.28
2022-12-18T20:44:21.793Z,46.95
2022-12-18T20:46:50.417Z,53.58
2022-12-18T20:49:17.406Z,43.72
2022-12-18T20:51:51.354Z,49.25
2022-12-18T20:54:20.359Z,48.13
2022-12-18T20:56:49.451Z,41.97
2022-12-18T20:59:16.568Z,51.75
2022-12-18T21:01:48.423Z,43.10
2022-12-18T21:04:17.529Z,48.28
2022-12-18T21:06:49.401Z,46.63
2022-12-18T21:09:18.376Z,48.97
2022-12-18T21:12:05.525Z,49.47
2022-12-18T21:14:32.225Z,33.47
2022-12-18T21:17:02.736Z,48.15
2022-12-18T21:19:29.903Z,48.72
2022-12-18T21:21:57.561Z,48.90
2022-12-18T21:24:25.468Z,51.15
2022-12-18T21:26:55.529Z,48.45
2022-12-18T21:29:24.815Z,45.00
2022-12-18T21:31:54.227Z,46.22
2022-12-18T21:34:25.514Z,56.30
2022-12-18T21:36:53.080Z,47.75
2022-12-18T21:39:20.122Z,57.35
2022-12-18T21:42:08.565Z,49.97
2022-12-18T21:47:22.216Z,48.33
2022-12-18T21:49:54.752Z,55.05
2022-12-18T21:52:41.844Z,52.30
2022-12-18T21:55:10.134Z,54.67
2022-12-18T21:57:39.230Z,50.63
2022-12-18T22:00:07.759Z,41.90
2022-12-18T22:02:34.601Z,54.50
2022-12-18T22:05:01.667Z,54.20
2022-12-18T22:07:29.223Z,51.25
2022-12-18T22:09:56.031Z,52.95
2022-12-18T22:12:36.573Z,50.03
2022-12-18T22:15:20.286Z,54.47
2022-12-18T22:17:59.971Z,53.75
2022-12-18T22:20:33.077Z,53.00
2022-12-18T22:23:01.027Z,52.90
2022-12-18T22:25:33.108Z,54.72
2022-12-18T22:28:40.012Z,56.92
2022-12-18T22:31:12.900Z,43.70
2022-12-18T22:33:39.586Z,49.38
2022-12-18T22:36:07.319Z,55.92
2022-12-18T22:38:34.567Z,38.67
2022-12-18T22:41:03.800Z,50.72
2022-12-18T22:43:30.514Z,48.90
2022-12-18T22:45:57.806Z,53.58
2022-12-18T22:48:24.588Z,56.28
2022-12-18T22:50:51.400Z,52.95
2022-12-18T22:53:22.629Z,50.53
2022-12-18T22:55:49.340Z,54.60
2022-12-18T22:58:16.001Z,56.60
2022-12-18T23:00:42.741Z,60.13
2022-12-18T23:03:09.747Z,50.78
2022-12-18T23:05:36.588Z,53.40
2022-12-18T23:08:03.306Z,54.95
2022-12-18T23:10:30.066Z,52.35
2022-12-18T23:12:59.363Z,53.40
2022-12-18T23:15:28.788Z,56.80
2022-12-18T23:17:59.025Z,56.20
2022-12-18T23:20:26.966Z,50.90
2022-12-18T23:22:54.172Z,52.47
2022-12-18T23:25:20.890Z,51.22
2022-12-18T23:27:47.665Z,51.83
2022-12-18T23:30:16.729Z,52.20
2022-12-18T23:32:43.424Z,58.65
2022-12-18T23:35:10.149Z,47.22
2022-12-18T23:37:58.708Z,50.85
2022-12-18T23:40:26.430Z,53.30
2022-12-18T23:42:53.128Z,55.35
2022-12-18T23:45:19.788Z,42.80
2022-12-18T23:47:50.950Z,52.80
2022-12-18T23:50:18.124Z,54.00
2022-12-18T23:52:47.017Z,45.95
2022-12-18T23:55:13.704Z,53.40
2022-12-18T23:57:42.522Z,49.58
